createdAt,value
2023-03-12T00:01:33.301Z,80.70
2023-03-12T00:04:06.050Z,80.80
2023-03-12T00:06:38.310Z,80.80
2023-03-12T00:09:10.281Z,80.80
2023-03-12T00:11:42.219Z,80.80
2023-03-12T00:14:14.250Z,80.60
2023-03-12T00:16:46.211Z,80.80
2023-03-12T00:19:18.353Z,80.60
2023-03-12T00:21:50.365Z,80.80
2023-03-12T00:24:22.443Z,80.80
2023-03-12T00:26:54.329Z,80.80
2023-03-12T00:29:26.248Z,80.80
2023-03-12T00:31:58.196Z,80.80
2023-03-12T00:34:30.198Z,80.80
2023-03-12T00:37:02.121Z,80.80
2023-03-12T00:39:35.411Z,80.80
2023-03-12T00:42:07.462Z,80.90
2023-03-12T00:44:39.439Z,81.50
2023-03-12T00:47:12.565Z,81.80
2023-03-12T00:49:44.545Z,81.70
2023-03-12T00:52:16.599Z,81.80
2023-03-12T00:54:48.511Z,81.90
2023-03-12T00:57:20.431Z,82.10
2023-03-12T00:59:52.517Z,82.20
2023-03-12T01:02:24.503Z,82.20
2023-03-12T01:04:56.403Z,82.20
2023-03-12T01:07:28.687Z,82.20
2023-03-12T01:10:00.721Z,82.40
2023-03-12T01:12:32.794Z,82.50
2023-03-12T01:15:05.660Z,82.80
2023-03-12T01:17:37.837Z,82.90
2023-03-12T01:20:11.261Z,83.10
2023-03-12T01:22:44.156Z,83.20
2023-03-12T01:25:16.205Z,83.50
2023-03-12T01:27:48.154Z,83.50
2023-03-12T01:30:20.234Z,83.50
2023-03-12T01:32:52.894Z,83.60
2023-03-12T01:35:25.983Z,83.60
2023-03-12T01:37:58.028Z,83.60
2023-03-12T01:40:33.868Z,83.60
2023-03-12T01:43:36.083Z,83.80
2023-03-12T01:46:22.560Z,84.10
2023-03-12T01:49:08.264Z,84.10
2023-03-12T01:51:45.611Z,84.10
2023-03-12T01:54:31.796Z,84.10
2023-03-12T01:57:08.553Z,84.10
2023-03-12T01:59:50.115Z,84.10
2023-03-12T02:02:27.055Z,84.00
2023-03-12T02:05:25.420Z,84.10
2023-03-12T02:07:57.684Z,84.30
2023-03-12T02:10:30.075Z,84.30
2023-03-12T02:13:02.378Z,84.60
2023-03-12T02:15:36.317Z,84.70
2023-03-12T02:18:14.158Z,84.90
2023-03-12T02:21:04.613Z,85.00
2023-03-12T02:24:03.848Z,85.10
2023-03-12T02:26:38.293Z,85.30
2023-03-12T02:29:12.110Z,85.50
2023-03-12T02:31:52.709Z,85.70
2023-03-12T02:34:24.723Z,85.60
2023-03-12T02:36:56.771Z,85.80
2023-03-12T02:39:29.091Z,86.20
2023-03-12T02:42:01.227Z,86.40
2023-03-12T02:44:36.564Z,86.50
2023-03-12T02:47:08.531Z,86.70
2023-03-12T02:49:40.510Z,87.00
2023-03-12T02:52:12.725Z,87.40
2023-03-12T02:54:44.694Z,87.40
2023-03-12T02:57:16.633Z,87.40
2023-03-12T02:59:48.532Z,87.70
2023-03-12T03:02:20.471Z,87.80
2023-03-12T03:04:52.475Z,88.10
2023-03-12T03:07:24.464Z,88.50
2023-03-12T03:09:56.492Z,88.80
2023-03-12T03:12:28.452Z,89.10
2023-03-12T03:15:01.182Z,89.50
2023-03-12T03:17:33.090Z,90.00
2023-03-12T03:20:10.998Z,90.30
2023-03-12T03:22:42.966Z,90.60
2023-03-12T03:25:15.952Z,90.90
2023-03-12T03:27:47.909Z,91.30
2023-03-12T03:30:21.308Z,91.70
2023-03-12T03:32:53.369Z,92.10
2023-03-12T03:35:25.456Z,92.40
2023-03-12T03:37:57.405Z,92.50
2023-03-12T03:40:29.844Z,92.90
2023-03-12T03:43:01.842Z,93.10
2023-03-12T03:45:33.782Z,93.30
2023-03-12T03:48:06.305Z,93.50
2023-03-12T03:50:39.940Z,93.70
2023-03-12T03:53:12.682Z,93.90
2023-03-12T03:55:44.700Z,94.10
2023-03-12T03:58:16.639Z,94.30
2023-03-12T04:00:48.678Z,94.50
2023-03-12T04:03:20.640Z,94.70
2023-03-12T04:06:02.491Z,94.80
2023-03-12T04:08:37.233Z,94.80
2023-03-12T04:11:19.554Z,95.00
2023-03-12T04:13:51.795Z,95.20
2023-03-12T04:16:24.744Z,95.30
2023-03-12T04:18:56.698Z,95.40
2023-03-12T04:21:28.754Z,95.60
2023-03-12T04:24:00.697Z,95.60
2023-03-12T04:26:32.709Z,95.70
2023-03-12T04:29:04.900Z,95.90
2023-03-12T04:31:37.011Z,95.90
2023-03-12T04:34:09.430Z,96.40
2023-03-12T04:36:41.502Z,96.10
2023-03-12T04:39:17.424Z,96.30
2023-03-12T04:41:49.575Z,96.30
2023-03-12T04:44:21.584Z,96.40
2023-03-12T04:46:53.615Z,96.40
2023-03-12T04:49:25.706Z,96.50
2023-03-12T04:51:57.725Z,96.60
2023-03-12T04:54:31.922Z,96.70
2023-03-12T04:57:03.929Z,96.80
2023-03-12T04:59:35.876Z,96.80
2023-03-12T05:02:08.104Z,97.00
2023-03-12T05:04:40.077Z,97.00
2023-03-12T05:07:12.019Z,97.20
2023-03-12T05:09:44.384Z,97.30
2023-03-12T05:12:16.328Z,97.50
2023-03-12T05:14:48.246Z,97.60
2023-03-12T05:17:20.218Z,97.90
2023-03-12T05:19:52.215Z,98.10
2023-03-12T05:22:24.244Z,98.30
2023-03-12T05:24:56.190Z,98.60
2023-03-12T05:27:29.506Z,99.00
2023-03-12T05:30:05.602Z,99.30
2023-03-12T05:32:37.885Z,99.70
2023-03-12T05:35:10.348Z,99.90
2023-03-12T05:37:42.930Z,99.90
2023-03-12T05:40:14.996Z,99.90
2023-03-12T05:42:46.920Z,99.90
2023-03-12T05:45:19.907Z,99.90
2023-03-12T05:47:51.797Z,99.90
2023-03-12T05:50:23.968Z,99.90
2023-03-12T05:52:55.881Z,99.90
2023-03-12T05:55:27.830Z,99.90
2023-03-12T05:57:59.731Z,99.90
2023-03-12T06:00:33.179Z,99.90
2023-03-12T06:03:06.078Z,99.90
2023-03-12T06:05:38.765Z,99.90
2023-03-12T06:08:10.746Z,99.90
2023-03-12T06:10:43.029Z,99.90
2023-03-12T06:13:14.987Z,99.90
2023-03-12T06:15:47.014Z,99.90
2023-03-12T06:18:18.920Z,99.90
2023-03-12T06:20:50.839Z,99.90
2023-03-12T06:23:22.776Z,99.90
2023-03-12T06:25:54.664Z,99.90
2023-03-12T06:28:26.596Z,99.90
2023-03-12T06:30:58.532Z,99.90
2023-03-12T06:33:31.255Z,99.90
2023-03-12T06:36:05.966Z,99.90
2023-03-12T06:38:38.312Z,99.90
2023-03-12T06:41:17.276Z,99.90
2023-03-12T06:43:49.410Z,99.90
2023-03-12T06:46:21.951Z,99.90
2023-03-12T06:48:54.655Z,99.90
2023-03-12T06:51:26.614Z,99.90
2023-03-12T06:54:01.127Z,99.90
2023-03-12T06:56:33.512Z,99.90
2023-03-12T06:59:05.810Z,99.90
2023-03-12T07:01:37.837Z,99.90
2023-03-12T07:04:09.891Z,99.90
2023-03-12T07:06:42.238Z,99.90
2023-03-12T07:09:14.149Z,99.90
2023-03-12T07:11:46.181Z,99.90
2023-03-12T07:14:20.258Z,99.90
2023-03-12T07:16:52.251Z,99.90
2023-03-12T07:19:24.185Z,99.90
2023-03-12T07:21:57.277Z,99.90
2023-03-12T07:24:29.343Z,99.90
2023-03-12T07:27:01.276Z,99.90
2023-03-12T07:29:33.189Z,99.90
2023-03-12T07:32:05.500Z,99.90
2023-03-12T07:34:37.506Z,99.90
2023-03-12T07:37:09.660Z,99.90
2023-03-12T07:39:41.638Z,99.90
2023-03-12T07:42:13.654Z,99.90
2023-03-12T07:44:45.953Z,99.90
2023-03-12T07:47:24.240Z,99.90
2023-03-12T07:49:56.435Z,99.90
2023-03-12T07:52:28.605Z,99.90
2023-03-12T07:55:00.598Z,99.90
2023-03-12T07:57:32.683Z,99.90
2023-03-12T08:00:07.720Z,99.90
2023-03-12T08:02:40.217Z,99.90
2023-03-12T08:05:12.373Z,99.90
2023-03-12T08:07:44.674Z,99.90
2023-03-12T08:10:16.783Z,99.90
2023-03-12T08:12:49.231Z,99.90
2023-03-12T08:15:21.270Z,99.90
2023-03-12T08:17:53.222Z,99.90
2023-03-12T08:20:25.207Z,99.90
2023-03-12T08:22:57.434Z,99.90
2023-03-12T08:25:29.981Z,99.90
2023-03-12T08:28:01.911Z,99.90
2023-03-12T08:30:33.848Z,99.90
2023-03-12T08:33:05.937Z,99.90
2023-03-12T08:35:37.986Z,99.90
2023-03-12T08:38:10.215Z,99.90
2023-03-12T08:40:42.382Z,99.90
2023-03-12T08:43:14.303Z,99.90
2023-03-12T08:45:46.451Z,99.90
2023-03-12T08:48:18.436Z,99.90
2023-03-12T08:50:50.764Z,99.90
2023-03-12T08:53:23.718Z,99.90
2023-03-12T08:55:57.203Z,99.90
2023-03-12T08:58:29.757Z,99.90
2023-03-12T09:01:01.860Z,99.90
2023-03-12T09:03:33.848Z,99.90
2023-03-12T09:06:13.434Z,99.90
2023-03-12T09:08:47.322Z,99.90
2023-03-12T09:11:19.276Z,99.90
2023-03-12T09:14:16.925Z,99.90
2023-03-12T09:16:43.136Z,99.90
2023-03-12T09:19:15.873Z,99.90
2023-03-12T09:21:47.865Z,99.90
2023-03-12T09:24:20.136Z,99.90
2023-03-12T09:26:52.109Z,99.90
2023-03-12T09:29:24.820Z,99.90
2023-03-12T09:31:56.915Z,99.90
2023-03-12T09:34:29.062Z,99.90
2023-03-12T09:37:01.054Z,99.90
2023-03-12T09:39:32.969Z,99.90
2023-03-12T09:42:19.476Z,99.90
2023-03-12T09:44:55.510Z,99.90
2023-03-12T09:47:33.892Z,99.90
2023-03-12T09:50:22.917Z,99.90
2023-03-12T09:53:22.933Z,99.90
2023-03-12T09:55:59.458Z,99.90
2023-03-12T09:58:38.217Z,99.90
2023-03-12T10:02:00.172Z,99.90
2023-03-12T10:05:06.074Z,99.90
2023-03-12T10:08:03.306Z,99.90
2023-03-12T10:11:06.193Z,99.90
2023-03-12T10:14:00.104Z,99.90
2023-03-12T10:17:08.851Z,99.90
2023-03-12T10:20:17.553Z,99.90
2023-03-12T10:23:01.719Z,99.90
2023-03-12T10:26:06.136Z,99.90
2023-03-12T10:28:52.754Z,99.90
2023-03-12T10:31:45.444Z,99.90
2023-03-12T10:34:51.558Z,99.90
2023-03-12T10:37:43.865Z,99.90
2023-03-12T10:40:36.751Z,99.90
2023-03-12T10:43:09.960Z,99.90
2023-03-12T10:46:48.994Z,99.90
2023-03-12T10:49:23.747Z,99.90
2023-03-12T10:52:16.978Z,99.90
2023-03-12T10:54:53.024Z,99.90
2023-03-12T10:57:41.355Z,99.90
2023-03-12T11:00:22.200Z,99.90
2023-03-12T11:03:18.787Z,99.90
2023-03-12T11:05:54.870Z,99.90
2023-03-12T11:08:35.255Z,99.90
2023-03-12T11:11:07.453Z,99.90
2023-03-12T11:13:41.915Z,99.90
2023-03-12T11:16:16.938Z,99.90
2023-03-12T11:18:59.990Z,99.90
2023-03-12T11:21:37.390Z,99.90
2023-03-12T11:24:16.188Z,99.90
2023-03-12T11:27:03.890Z,99.90
2023-03-12T11:29:45.788Z,99.90
2023-03-12T11:32:38.751Z,99.90
2023-03-12T11:35:15.377Z,99.90
2023-03-12T11:37:56.585Z,99.90
2023-03-12T11:40:50.254Z,99.90
2023-03-12T11:43:44.274Z,99.90
2023-03-12T11:46:22.365Z,99.90
2023-03-12T11:49:26.349Z,99.90
2023-03-12T11:52:38.729Z,99.90
2023-03-12T11:55:55.069Z,99.90
2023-03-12T11:58:56.054Z,99.90
2023-03-12T12:01:58.187Z,99.90
2023-03-12T12:05:21.832Z,99.90
2023-03-12T12:08:08.559Z,99.90
2023-03-12T12:11:28.946Z,99.90
2023-03-12T12:14:25.317Z,99.90
2023-03-12T12:17:19.729Z,99.90
2023-03-12T12:20:31.708Z,99.90
2023-03-12T12:23:35.770Z,99.90
2023-03-12T12:26:41.368Z,99.90
2023-03-12T12:29:43.402Z,99.90
2023-03-12T12:32:56.188Z,99.90
2023-03-12T12:35:41.334Z,99.90
2023-03-12T12:38:37.940Z,99.90
2023-03-12T12:41:18.072Z,99.90
2023-03-12T12:44:32.398Z,99.90
2023-03-12T12:47:13.178Z,99.90
2023-03-12T12:49:54.809Z,99.90
2023-03-12T12:52:28.868Z,99.90
2023-03-12T12:55:30.937Z,99.90
2023-03-12T12:58:29.283Z,99.90
2023-03-12T13:01:02.700Z,99.90
2023-03-12T13:03:35.198Z,99.90
2023-03-12T13:06:07.983Z,99.90
2023-03-12T13:08:45.867Z,99.90
2023-03-12T13:11:20.635Z,99.90
2023-03-12T13:14:04.932Z,99.90
2023-03-12T13:16:45.720Z,99.90
2023-03-12T13:19:17.642Z,99.90
2023-03-12T13:22:01.425Z,99.90
2023-03-12T13:25:09.895Z,99.90
2023-03-12T13:27:45.624Z,99.90
2023-03-12T13:30:36.104Z,99.90
2023-03-12T13:33:16.035Z,99.90
2023-03-12T13:36:17.458Z,99.90
2023-03-12T13:39:00.140Z,99.90
2023-03-12T13:41:40.928Z,99.90
2023-03-12T13:44:28.916Z,99.90
2023-03-12T13:47:10.989Z,99.90
2023-03-12T13:50:15.480Z,99.90
2023-03-12T13:53:00.171Z,99.90
2023-03-12T13:55:36.482Z,99.90
2023-03-12T13:58:21.668Z,99.90
2023-03-12T14:01:07.097Z,99.90
2023-03-12T14:03:58.017Z,99.90
2023-03-12T14:06:47.170Z,99.90
2023-03-12T14:09:31.575Z,99.90
2023-03-12T14:12:47.866Z,99.90
2023-03-12T14:15:32.617Z,99.90
2023-03-12T14:18:28.875Z,99.90
2023-03-12T14:21:08.797Z,99.90
2023-03-12T14:23:50.953Z,99.90
2023-03-12T14:26:32.089Z,99.90
2023-03-12T14:30:13.431Z,99.90
2023-03-12T14:32:50.636Z,99.90
2023-03-12T14:35:29.492Z,99.90
2023-03-12T14:38:11.484Z,99.90
2023-03-12T14:41:02.222Z,99.90
2023-03-12T14:43:35.718Z,99.90
2023-03-12T14:46:19.811Z,99.90
2023-03-12T14:48:55.003Z,99.90
2023-03-12T14:51:36.152Z,99.90
2023-03-12T14:54:24.311Z,99.90
2023-03-12T14:56:56.286Z,99.90
2023-03-12T14:59:37.435Z,99.90
2023-03-12T15:02:16.919Z,99.90
2023-03-12T15:04:59.069Z,99.90
2023-03-12T15:07:41.745Z,99.90
2023-03-12T15:10:27.222Z,99.90
2023-03-12T15:13:02.708Z,99.90
2023-03-12T15:15:43.091Z,99.90
2023-03-12T15:18:29.408Z,99.90
2023-03-12T15:21:03.222Z,99.90
2023-03-12T15:23:38.125Z,99.90
2023-03-12T15:26:32.173Z,99.90
2023-03-12T15:29:29.084Z,99.90
2023-03-12T15:32:03.474Z,99.90
2023-03-12T15:34:38.818Z,99.90
2023-03-12T15:37:38.692Z,99.90
2023-03-12T15:40:23.716Z,99.90
2023-03-12T15:43:01.851Z,99.90
2023-03-12T15:45:39.694Z,99.90
2023-03-12T15:48:41.540Z,99.90
2023-03-12T15:51:40.548Z,99.90
2023-03-12T15:54:18.537Z,99.90
2023-03-12T15:56:50.638Z,99.90
2023-03-12T15:59:29.083Z,99.90
2023-03-12T16:02:01.215Z,99.90
2023-03-12T16:04:33.197Z,99.90
2023-03-12T16:07:11.893Z,99.90
2023-03-12T16:09:43.869Z,99.90
2023-03-12T16:12:15.830Z,99.90
2023-03-12T16:14:49.382Z,99.90
2023-03-12T16:17:22.986Z,99.90
2023-03-12T16:19:54.969Z,99.90
2023-03-12T16:22:27.073Z,99.90
2023-03-12T16:24:59.007Z,99.90
2023-03-12T16:27:33.030Z,99.90
2023-03-12T16:30:18.306Z,99.90
2023-03-12T16:32:50.290Z,99.90
2023-03-12T16:35:23.054Z,99.90
2023-03-12T16:37:55.775Z,99.90
2023-03-12T16:40:33.796Z,99.90
2023-03-12T16:43:15.615Z,99.90
2023-03-12T16:45:49.694Z,99.90
2023-03-12T16:48:27.067Z,99.90
2023-03-12T16:50:59.077Z,99.90
2023-03-12T16:53:31.028Z,99.90
2023-03-12T16:56:03.086Z,99.90
2023-03-12T16:58:36.380Z,99.90
2023-03-12T17:01:16.298Z,99.90
2023-03-12T17:03:53.182Z,99.90
2023-03-12T17:06:27.241Z,99.90
2023-03-12T17:08:59.705Z,99.90
2023-03-12T17:11:34.991Z,99.90
2023-03-12T17:14:22.080Z,99.90
2023-03-12T17:16:54.444Z,99.90
2023-03-12T17:19:26.440Z,99.90
2023-03-12T17:21:58.487Z,99.90
2023-03-12T17:24:30.525Z,99.90
2023-03-12T17:27:02.532Z,99.90
2023-03-12T17:29:34.556Z,99.90
2023-03-12T17:32:07.228Z,99.90
2023-03-12T17:34:39.161Z,99.90
2023-03-12T17:37:11.192Z,99.90
2023-03-12T17:39:43.225Z,99.90
2023-03-12T17:42:15.184Z,99.90
2023-03-12T17:44:47.321Z,99.90
2023-03-12T17:47:19.274Z,99.90
2023-03-12T17:49:51.740Z,99.90
2023-03-12T17:52:24.468Z,99.90
2023-03-12T17:54:56.441Z,99.90
2023-03-12T17:57:28.607Z,99.90
2023-03-12T18:00:00.739Z,99.90
2023-03-12T18:02:32.726Z,99.90
2023-03-12T18:05:05.398Z,99.90
2023-03-12T18:07:37.869Z,99.90
2023-03-12T18:10:11.310Z,99.90
2023-03-12T18:12:43.726Z,99.90
2023-03-12T18:15:16.779Z,99.90
2023-03-12T18:17:52.375Z,99.90
2023-03-12T18:20:37.526Z,99.90
2023-03-12T18:23:10.636Z,99.90
2023-03-12T18:25:42.834Z,99.90
2023-03-12T18:28:15.383Z,99.90
2023-03-12T18:30:48.394Z,99.90
2023-03-12T18:33:20.325Z,99.90
2023-03-12T18:35:54.434Z,99.90
2023-03-12T18:38:26.632Z,99.90
2023-03-12T18:41:06.705Z,99.90
2023-03-12T18:43:40.589Z,99.90
2023-03-12T18:46:13.112Z,99.90
2023-03-12T18:48:45.118Z,99.90
2023-03-12T18:51:17.023Z,99.90
2023-03-12T18:53:49.079Z,99.90
2023-03-12T18:56:20.995Z,99.90
2023-03-12T18:58:52.957Z,99.90
2023-03-12T19:01:26.150Z,99.90
2023-03-12T19:03:58.296Z,99.90
2023-03-12T19:06:40.824Z,99.90
2023-03-12T19:09:20.341Z,99.90
2023-03-12T19:11:52.331Z,99.90
2023-03-12T19:14:26.710Z,99.90
2023-03-12T19:16:58.695Z,99.90
2023-03-12T19:19:30.867Z,99.90
2023-03-12T19:22:03.685Z,99.90
2023-03-12T19:24:35.632Z,99.90
2023-03-12T19:27:07.580Z,99.90
2023-03-12T19:29:39.484Z,99.90
2023-03-12T19:32:11.498Z,99.90
2023-03-12T19:34:50.169Z,99.90
2023-03-12T19:37:23.928Z,99.90
2023-03-12T19:39:55.873Z,99.90
2023-03-12T19:42:27.830Z,99.90
2023-03-12T19:44:59.861Z,99.90
2023-03-12T19:47:33.319Z,99.90
2023-03-12T19:50:06.670Z,99.90
2023-03-12T19:52:38.822Z,99.90
2023-03-12T19:55:11.984Z,99.90
2023-03-12T19:57:44.123Z,99.90
2023-03-12T20:00:16.498Z,99.90
2023-03-12T20:02:49.236Z,99.90
2023-03-12T20:05:21.289Z,99.90
2023-03-12T20:07:53.311Z,99.90
2023-03-12T20:10:26.004Z,99.90
2023-03-12T20:12:57.953Z,99.90
2023-03-12T20:15:30.089Z,99.90
2023-03-12T20:18:02.018Z,99.90
2023-03-12T20:20:34.034Z,99.90
2023-03-12T20:23:06.361Z,99.90
2023-03-12T20:25:42.302Z,99.90
2023-03-12T20:28:14.277Z,99.90
2023-03-12T20:30:46.364Z,99.90
2023-03-12T20:33:18.744Z,99.90
2023-03-12T20:35:50.747Z,99.90
2023-03-12T20:38:22.737Z,99.90
2023-03-12T20:40:54.646Z,99.90
2023-03-12T20:43:27.140Z,99.90
2023-03-12T20:45:59.151Z,99.90
2023-03-12T20:48:31.110Z,99.90
2023-03-12T20:51:03.682Z,99.90
2023-03-12T20:53:35.709Z,99.90
2023-03-12T20:56:08.604Z,99.90
2023-03-12T20:58:40.816Z,99.90
2023-03-12T21:01:12.807Z,99.90
2023-03-12T21:03:44.861Z,99.90
2023-03-12T21:06:16.876Z,99.90
2023-03-12T21:08:48.853Z,99.90
2023-03-12T21:11:20.830Z,99.90
2023-03-12T21:13:53.915Z,99.90
2023-03-12T21:16:25.942Z,99.90
2023-03-12T21:18:58.799Z,99.90
2023-03-12T21:21:32.060Z,99.90
2023-03-12T21:24:04.603Z,99.90
2023-03-12T21:26:36.726Z,99.90
2023-03-12T21:29:09.018Z,99.90
2023-03-12T21:31:40.995Z,99.90
2023-03-12T21:34:12.895Z,99.90
2023-03-12T21:36:46.360Z,99.90
2023-03-12T21:39:18.863Z,99.90
2023-03-12T21:41:50.830Z,99.90
2023-03-12T21:44:22.806Z,99.90
2023-03-12T21:46:54.693Z,99.90
2023-03-12T21:49:26.735Z,99.90
2023-03-12T21:51:58.752Z,99.90
2023-03-12T21:54:35.321Z,99.90
2023-03-12T21:57:07.257Z,99.90
2023-03-12T21:59:39.251Z,99.90
2023-03-12T22:02:15.231Z,99.90
2023-03-12T22:04:47.216Z,99.90
2023-03-12T22:07:19.134Z,99.90
2023-03-12T22:09:51.124Z,99.90
2023-03-12T22:12:23.139Z,99.90
2023-03-12T22:14:55.112Z,99.90
2023-03-12T22:17:27.683Z,99.90
2023-03-12T22:19:59.642Z,99.90
2023-03-12T22:22:31.626Z,99.90
2023-03-12T22:25:03.816Z,99.90
2023-03-12T22:27:35.773Z,99.90
2023-03-12T22:30:08.808Z,99.90
2023-03-12T22:32:40.835Z,99.90
2023-03-12T22:35:12.902Z,99.90
2023-03-12T22:37:45.571Z,99.90
2023-03-12T22:40:17.699Z,99.90
2023-03-12T22:42:56.168Z,99.90
2023-03-12T22:45:28.106Z,99.90
2023-03-12T22:48:00.530Z,99.90
2023-03-12T22:50:32.669Z,99.90
2023-03-12T22:53:04.623Z,99.90
2023-03-12T22:55:36.529Z,99.90
2023-03-12T22:58:08.686Z,99.90
2023-03-12T23:00:40.594Z,99.90
2023-03-12T23:03:12.593Z,99.90
2023-03-12T23:05:44.559Z,99.90
2023-03-12T23:08:16.555Z,99.90
2023-03-12T23:11:01.294Z,99.90
2023-03-12T23:13:36.934Z,99.90
2023-03-12T23:16:13.548Z,99.90
2023-03-12T23:18:46.873Z,99.90
2023-03-12T23:21:23.003Z,99.90
2023-03-12T23:23:54.991Z,99.90
2023-03-12T23:26:28.789Z,99.90
2023-03-12T23:29:01.466Z,99.90
2023-03-12T23:31:33.605Z,99.90
2023-03-12T23:34:08.921Z,99.90
2023-03-12T23:36:42.515Z,99.90
2023-03-12T23:39:15.426Z,99.90
2023-03-12T23:41:47.352Z,99.90
2023-03-12T23:44:19.272Z,99.90
2023-03-12T23:46:51.585Z,99.90
2023-03-12T23:49:23.561Z,99.90
2023-03-12T23:51:55.479Z,99.90
2023-03-12T23:54:27.430Z,99.90
2023-03-12T23:56:59.433Z,99.90
2023-03-12T23:59:31.378Z,99.90
